Main page
Satellite images 15-day forecastsClimateMarine weather Cyclones Lightning AirportsFAQ Newsletter About
Weather : Europe Africa North America South America Asia Australia-Oceania Others
Languages Contact

Eleusina, Greece

latitude: 38-04N, longitude: 023-33E, elevation: 44 m


METAR: LGEL 241920Z 33004KT 9999 FEW025 09/05 Q1022
TAF: LGEL 241700Z 2418/2518 35010KT 9999 SCT020 PROB30 TEMPO 2500/2512 5000 RA SCT010 BKN020

Time: 21:46 (19:46 UTC)

Current weather observation

The report was made 26 minutes ago, at 19:20 UTC
Wind 4 kt from the North/Northwest
Temperature 9°C
Humidity 76%
Pressure 1022 hPa
Visibility 10 km or more
Few clouds at a height of 2500 ft

Change units

Forecast

The report was made 2 hours and 46 minutes ago, at 17:00 UTC
Forecast valid from 24 at 18 UTC to 25 at 18 UTC
Wind 10 kt from the North
Visibility 10 km or more
Scattered clouds at a height of 2000 ft
Probability 30% :
Temporary
from 25 at 00 UTC to 25 at 12 UTC
Visibility: 5000 m
Scattered clouds at a height of 1000 ft
Broken clouds at a height of 2000 ft
rain
The information on this site is subject to a disclaimer
Weather : Europe Africa North America South America Asia Australia-Oceania Others
Satellite images 15-day forecastsClimateMarine weather Cyclones Lightning AirportsFAQ Languages Contact Newsletter About